Voreifelwetter - Wetterstation Drove - Standort 5043'47" - 0630'49"
Wetterdaten: aktuell Dienstag, 22.01.2019 10:45
Datum Zeit Temp. A. Feuchte A. Luftdruck Regen Wind Richtung Richtung Sonnenschein Helligkeit Taupunkt Windchill
22.01.2019 10:45 0,7 C 51 % 1006,3 hPa 0,0 mm 14,8 km/h (3 Bft) S45 185 15 min 26,4 klux -8,3 C -6,0 C
22.01.2019 10:30 0,1 C 54 % 1006,4 hPa 0,0 mm 10,3 km/h (2 Bft) SO22.5 125 15 min 24,5 klux -8,1 C -3,6 C
22.01.2019 10:15 -0,4 C 64 % 1006,4 hPa 0,0 mm 5,6 km/h (1 Bft) O-SO22.5 120 15 min 20,1 klux -6,4 C -0,4 C
22.01.2019 10:00 -0,7 C 65 % 1007,4 hPa 0,0 mm 5,9 km/h (2 Bft) O-SO22.5 115 15 min 19,3 klux -6,4 C -0,7 C
22.01.2019 09:45 -1,1 C 65 % 1007,5 hPa 0,0 mm 9,6 km/h (2 Bft) O45 85 15 min 16,2 klux -6,8 C -4,3 C
22.01.2019 09:30 -1,4 C 67 % 1007,5 hPa 0,0 mm 5,2 km/h (1 Bft) O-NO45 70 15 min 17,1 klux -6,7 C -1,4 C
22.01.2019 09:15 -1,8 C 67 % 1007,5 hPa 0,0 mm 11,0 km/h (2 Bft) SO45 135 15 min 12,4 klux -7,1 C -6,3 C
22.01.2019 09:00 -2,3 C 69 % 1007,6 hPa 0,0 mm 10,8 km/h (2 Bft) SO45 140 0 min 4,05 klux -7,2 C -6,7 C
22.01.2019 08:45 -2,5 C 70 % 1007,6 hPa 0,0 mm 10,6 km/h (2 Bft) O-SO22.5 110 0 min 2,30 klux -7,2 C -6,7 C
22.01.2019 08:30 -2,5 C 70 % 1007,6 hPa 0,0 mm 15,6 km/h (3 Bft) O22.5 100 0 min 1,02 klux -7,2 C -10,4 C
22.01.2019 08:15 -2,6 C 71 % 1008,6 hPa 0,0 mm 16,6 km/h (3 Bft) SO45 140 0 min 328 lux -7,1 C -11,1 C
22.01.2019 08:00 -3,0 C 75 % 1008,7 hPa 0,0 mm 15,8 km/h (3 Bft) O 80 0 min 0 lux -6,8 C -11,1 C
22.01.2019 07:45 -3,1 C 75 % 1008,7 hPa 0,0 mm 12,1 km/h (2 Bft) O 80 0 min 0 lux -6,9 C -8,6 C
22.01.2019 07:30 -3,1 C 76 % 1008,7 hPa 0,0 mm 13,5 km/h (3 Bft) O 80 0 min 0 lux -6,7 C -9,7 C
22.01.2019 07:15 -3,8 C 80 % 1008,7 hPa 0,0 mm 10,6 km/h (2 Bft) O 80 0 min 0 lux -6,7 C -8,2 C
22.01.2019 07:00 -4,6 C 83 % 1009,8 hPa 0,0 mm 9,3 km/h (2 Bft) O 80 0 min 0 lux -7,0 C -7,8 C
22.01.2019 06:45 -5,9 C 83 % 1009,9 hPa 0,0 mm 9,8 km/h (2 Bft) O 80 0 min 0 lux -8,3 C -9,8 C
22.01.2019 06:30 -5,9 C 83 % 1009,9 hPa 0,0 mm 5,3 km/h (1 Bft) O-NO 75 0 min 0 lux -8,3 C -5,9 C
22.01.2019 06:15 -5,9 C 82 % 1009,9 hPa 0,0 mm 2,4 km/h (1 Bft) O 80 0 min 0 lux -8,5 C -5,9 C
22.01.2019 06:00 -5,5 C 82 % 1010,9 hPa 0,0 mm 0,0 km/h (0 Bft) O 80 0 min 0 lux -8,1 C -5,5 C
22.01.2019 05:45 -5,1 C 83 % 1010,9 hPa 0,0 mm 7,0 km/h (2 Bft) O 80 0 min 0 lux -7,5 C -5,8 C
22.01.2019 05:30 -6,0 C 83 % 1011,0 hPa 0,0 mm 0,6 km/h (0 Bft) O 80 0 min 0 lux -8,4 C -6,0 C
22.01.2019 05:15 -6,1 C 82 % 1011,0 hPa 0,0 mm 0,0 km/h (0 Bft) O 80 0 min 0 lux -8,7 C -6,1 C
22.01.2019 05:00 -5,6 C 82 % 1012,0 hPa 0,0 mm 0,6 km/h (0 Bft) O 80 0 min 0 lux -8,2 C -5,6 C
22.01.2019 04:45 -5,3 C 82 % 1011,9 hPa 0,0 mm 8,3 km/h (2 Bft) O 80 0 min 0 lux -7,9 C -7,5 C
22.01.2019 04:30 -4,6 C 82 % 1011,9 hPa 0,0 mm 0,6 km/h (0 Bft) O 80 0 min 0 lux -7,2 C -4,6 C
22.01.2019 04:15 -4,7 C 83 % 1011,9 hPa 0,0 mm 6,3 km/h (2 Bft) O 80 0 min 0 lux -7,1 C -4,7 C
22.01.2019 04:00 -4,7 C 84 % 1012,9 hPa 0,0 mm 3,2 km/h (1 Bft) O 80 0 min 0 lux -7,0 C -4,7 C
22.01.2019 03:45 -5,0 C 84 % 1012,9 hPa 0,0 mm 0,6 km/h (0 Bft) O 80 0 min 0 lux -7,3 C -5,0 C
22.01.2019 03:30 -5,0 C 85 % 1012,9 hPa 0,0 mm 0,3 km/h (0 Bft) O 80 0 min 0 lux -7,1 C -5,0 C
22.01.2019 03:15 -5,5 C 86 % 1014,0 hPa 0,0 mm 2,5 km/h (1 Bft) O 80 0 min 0 lux -7,5 C -5,5 C
22.01.2019 03:00 -5,9 C 85 % 1014,0 hPa 0,0 mm 0,0 km/h (0 Bft) O 80 0 min 0 lux -8,0 C -5,9 C
22.01.2019 02:45 -5,8 C 85 % 1014,0 hPa 0,0 mm 0,0 km/h (0 Bft) O 80 0 min 0 lux -7,9 C -5,8 C
22.01.2019 02:30 -5,6 C 86 % 1014,0 hPa 0,0 mm 0,2 km/h (0 Bft) O 80 0 min 0 lux -7,6 C -5,6 C
22.01.2019 02:15 -5,7 C 85 % 1015,0 hPa 0,0 mm 0,0 km/h (0 Bft) O 80 0 min 0 lux -7,8 C -5,7 C
22.01.2019 02:00 -5,5 C 85 % 1015,0 hPa 0,0 mm 0,0 km/h (0 Bft) O 80 0 min 0 lux -7,6 C -5,5 C
22.01.2019 01:45 -5,5 C 86 % 1015,0 hPa 0,0 mm 0,0 km/h (0 Bft) O 80 0 min 0 lux -7,5 C -5,5 C
22.01.2019 01:30 -5,5 C 86 % 1015,0 hPa 0,0 mm 0,4 km/h (0 Bft) O 80 0 min 0 lux -7,5 C -5,5 C
22.01.2019 01:15 -5,3 C 86 % 1015,0 hPa 0,0 mm 0,8 km/h (0 Bft) O 80 0 min 0 lux -7,3 C -5,3 C
22.01.2019 01:00 -5,3 C 86 % 1016,0 hPa 0,0 mm 0,0 km/h (0 Bft) O 80 0 min 0 lux -7,3 C -5,3 C
22.01.2019 00:45 -4,6 C 87 % 1016,0 hPa 0,0 mm 10,1 km/h (2 Bft) O 80 0 min 0 lux -6,4 C -8,6 C
22.01.2019 00:30 -5,0 C 88 % 1016,0 hPa 0,0 mm 11,4 km/h (2 Bft) O 80 0 min 0 lux -6,7 C -10,2 C
22.01.2019 00:15 -5,6 C 88 % 1017,1 hPa 0,0 mm 4,6 km/h (1 Bft) O 80 0 min 0 lux -7,3 C -5,6 C
22.01.2019 00:00 -6,1 C 88 % 1017,1 hPa 0,0 mm 0,3 km/h (0 Bft) O 80 0 min 0 lux -7,8 C -6,1 C
_ Min-Zeit 00:00 10:45 10:45 - 01:00 - - - - 05:15 08:00
Minimum _ -6,1 C 51 % 1006,3 hPa - 0,0 km/h (0 Bft) - - - - -8,7 C -11,1 C
_ Max-Zeit 10:45 00:00 00:00 00:00 08:15 - - 09:15 10:45 10:15 10:15
Maximum _ 0,7 C 88 % 1017,1 hPa 0,0 mm 16,6 km/h
SO (3 Bft)
- - 15 min 26,4 klux -6,4 C -0,4 C
Durchschnitt _ -4,2 C 79 % 1011,3 hPa #0,0 mm 5,7 km/h (1 Bft) O - #1:45 h 3,27 klux -7,4 C -6,2 C